sensor_id;sensor_type;location;lat;lon;timestamp;P1;durP1;ratioP1;P2;durP2;ratioP2
14789;SDS011;7486;51.010;10.366;2022-12-07T00:01:43;10.70;;;6.70;;
14789;SDS011;7486;51.010;10.366;2022-12-07T00:04:12;12.57;;;6.37;;
14789;SDS011;7486;51.010;10.366;2022-12-07T00:06:42;9.40;;;6.53;;
14789;SDS011;7486;51.010;10.366;2022-12-07T00:09:12;9.47;;;6.93;;
14789;SDS011;7486;51.010;10.366;2022-12-07T00:11:40;9.30;;;6.00;;
14789;SDS011;7486;51.010;10.366;2022-12-07T00:14:10;8.83;;;6.80;;
14789;SDS011;7486;51.010;10.366;2022-12-07T00:16:39;9.07;;;6.47;;
14789;SDS011;7486;51.010;10.366;2022-12-07T00:19:06;8.93;;;6.53;;
14789;SDS011;7486;51.010;10.366;2022-12-07T00:21:34;11.17;;;6.60;;
14789;SDS011;7486;51.010;10.366;2022-12-07T00:24:02;8.77;;;6.83;;
14789;SDS011;7486;51.010;10.366;2022-12-07T00:26:32;8.97;;;6.67;;
14789;SDS011;7486;51.010;10.366;2022-12-07T00:29:05;8.67;;;6.93;;
14789;SDS011;7486;51.010;10.366;2022-12-07T00:31:36;10.07;;;7.10;;
14789;SDS011;7486;51.010;10.366;2022-12-07T00:34:07;10.03;;;7.03;;
14789;SDS011;7486;51.010;10.366;2022-12-07T00:36:39;10.63;;;7.03;;
14789;SDS011;7486;51.010;10.366;2022-12-07T00:39:06;9.63;;;7.07;;
14789;SDS011;7486;51.010;10.366;2022-12-07T00:41:32;11.83;;;7.40;;
14789;SDS011;7486;51.010;10.366;2022-12-07T00:43:59;9.83;;;7.30;;
14789;SDS011;7486;51.010;10.366;2022-12-07T00:46:26;10.07;;;7.00;;
14789;SDS011;7486;51.010;10.366;2022-12-07T00:48:53;11.27;;;7.23;;
14789;SDS011;7486;51.010;10.366;2022-12-07T00:51:21;11.17;;;7.20;;
14789;SDS011;7486;51.010;10.366;2022-12-07T00:53:50;10.67;;;7.83;;
14789;SDS011;7486;51.010;10.366;2022-12-07T00:56:19;10.23;;;7.73;;
14789;SDS011;7486;51.010;10.366;2022-12-07T00:58:51;11.00;;;7.27;;
14789;SDS011;7486;51.010;10.366;2022-12-07T01:01:19;11.20;;;7.73;;
14789;SDS011;7486;51.010;10.366;2022-12-07T01:03:46;10.47;;;7.27;;
14789;SDS011;7486;51.010;10.366;2022-12-07T01:06:14;10.63;;;7.57;;
14789;SDS011;7486;51.010;10.366;2022-12-07T01:08:41;12.87;;;8.27;;
14789;SDS011;7486;51.010;10.366;2022-12-07T01:11:12;11.77;;;8.33;;
14789;SDS011;7486;51.010;10.366;2022-12-07T01:13:41;11.57;;;8.20;;
14789;SDS011;7486;51.010;10.366;2022-12-07T01:16:09;11.87;;;7.87;;
14789;SDS011;7486;51.010;10.366;2022-12-07T01:18:38;11.23;;;8.20;;
14789;SDS011;7486;51.010;10.366;2022-12-07T01:21:12;13.47;;;8.60;;
14789;SDS011;7486;51.010;10.366;2022-12-07T01:23:45;12.67;;;8.10;;
14789;SDS011;7486;51.010;10.366;2022-12-07T01:26:13;12.77;;;8.43;;
14789;SDS011;7486;51.010;10.366;2022-12-07T01:28:42;12.93;;;8.60;;
14789;SDS011;7486;51.010;10.366;2022-12-07T01:31:10;13.27;;;8.73;;
14789;SDS011;7486;51.010;10.366;2022-12-07T01:33:42;12.23;;;8.63;;
14789;SDS011;7486;51.010;10.366;2022-12-07T01:36:15;12.47;;;8.73;;
14789;SDS011;7486;51.010;10.366;2022-12-07T01:38:50;11.83;;;8.57;;
14789;SDS011;7486;51.010;10.366;2022-12-07T01:41:18;15.33;;;9.03;;
14789;SDS011;7486;51.010;10.366;2022-12-07T01:46:38;13.03;;;9.23;;
14789;SDS011;7486;51.010;10.366;2022-12-07T01:49:07;12.33;;;9.10;;
14789;SDS011;7486;51.010;10.366;2022-12-07T01:51:36;11.67;;;8.67;;
14789;SDS011;7486;51.010;10.366;2022-12-07T01:54:05;13.80;;;9.30;;
14789;SDS011;7486;51.010;10.366;2022-12-07T01:56:32;12.70;;;8.70;;
14789;SDS011;7486;51.010;10.366;2022-12-07T01:58:59;12.13;;;9.07;;
14789;SDS011;7486;51.010;10.366;2022-12-07T02:01:27;13.23;;;9.57;;
14789;SDS011;7486;51.010;10.366;2022-12-07T02:03:54;15.43;;;9.83;;
14789;SDS011;7486;51.010;10.366;2022-12-07T02:06:22;14.00;;;9.50;;
14789;SDS011;7486;51.010;10.366;2022-12-07T02:08:52;11.93;;;8.73;;
14789;SDS011;7486;51.010;10.366;2022-12-07T02:11:19;14.37;;;9.87;;
14789;SDS011;7486;51.010;10.366;2022-12-07T02:13:48;12.60;;;9.30;;
14789;SDS011;7486;51.010;10.366;2022-12-07T02:24:58;13.30;;;9.50;;
14789;SDS011;7486;51.010;10.366;2022-12-07T02:27:53;13.70;;;9.97;;
14789;SDS011;7486;51.010;10.366;2022-12-07T02:30:27;15.43;;;10.40;;
14789;SDS011;7486;51.010;10.366;2022-12-07T02:40:50;16.20;;;10.90;;
14789;SDS011;7486;51.010;10.366;2022-12-07T02:43:30;14.20;;;10.57;;
14789;SDS011;7486;51.010;10.366;2022-12-07T02:46:09;13.70;;;10.17;;
14789;SDS011;7486;51.010;10.366;2022-12-07T02:48:40;16.07;;;11.43;;
14789;SDS011;7486;51.010;10.366;2022-12-07T02:51:09;16.57;;;11.73;;
14789;SDS011;7486;51.010;10.366;2022-12-07T02:53:37;15.73;;;11.20;;
14789;SDS011;7486;51.010;10.366;2022-12-07T03:06:50;16.57;;;11.73;;
14789;SDS011;7486;51.010;10.366;2022-12-07T03:09:27;17.03;;;11.67;;
14789;SDS011;7486;51.010;10.366;2022-12-07T03:12:18;18.17;;;11.97;;
14789;SDS011;7486;51.010;10.366;2022-12-07T03:14:59;18.23;;;12.23;;
14789;SDS011;7486;51.010;10.366;2022-12-07T03:17:32;17.93;;;12.87;;
14789;SDS011;7486;51.010;10.366;2022-12-07T03:20:02;18.53;;;12.07;;
14789;SDS011;7486;51.010;10.366;2022-12-07T03:22:32;18.00;;;12.30;;
14789;SDS011;7486;51.010;10.366;2022-12-07T03:25:06;21.10;;;13.07;;
14789;SDS011;7486;51.010;10.366;2022-12-07T03:28:20;17.50;;;12.27;;
14789;SDS011;7486;51.010;10.366;2022-12-07T03:33:13;18.30;;;12.40;;
14789;SDS011;7486;51.010;10.366;2022-12-07T03:35:54;19.30;;;12.67;;
14789;SDS011;7486;51.010;10.366;2022-12-07T03:38:35;19.30;;;12.90;;
14789;SDS011;7486;51.010;10.366;2022-12-07T03:41:18;18.13;;;13.00;;
14789;SDS011;7486;51.010;10.366;2022-12-07T03:43:51;19.73;;;13.40;;
14789;SDS011;7486;51.010;10.366;2022-12-07T03:49:52;21.53;;;13.60;;
14789;SDS011;7486;51.010;10.366;2022-12-07T03:52:24;20.00;;;13.67;;
14789;SDS011;7486;51.010;10.366;2022-12-07T03:55:02;20.20;;;13.60;;
14789;SDS011;7486;51.010;10.366;2022-12-07T03:57:34;21.17;;;13.77;;
14789;SDS011;7486;51.010;10.366;2022-12-07T04:00:04;19.77;;;13.80;;
14789;SDS011;7486;51.010;10.366;2022-12-07T04:02:37;20.20;;;13.43;;
14789;SDS011;7486;51.010;10.366;2022-12-07T04:05:05;21.53;;;13.07;;
14789;SDS011;7486;51.010;10.366;2022-12-07T04:07:32;19.40;;;13.43;;
14789;SDS011;7486;51.010;10.366;2022-12-07T04:09:59;21.00;;;13.50;;
14789;SDS011;7486;51.010;10.366;2022-12-07T04:12:26;21.77;;;13.33;;
14789;SDS011;7486;51.010;10.366;2022-12-07T04:14:53;20.57;;;13.57;;
14789;SDS011;7486;51.010;10.366;2022-12-07T04:17:19;19.97;;;13.57;;
14789;SDS011;7486;51.010;10.366;2022-12-07T04:19:46;18.20;;;12.30;;
14789;SDS011;7486;51.010;10.366;2022-12-07T04:22:13;22.00;;;14.67;;
14789;SDS011;7486;51.010;10.366;2022-12-07T04:24:40;20.20;;;13.77;;
14789;SDS011;7486;51.010;10.366;2022-12-07T04:27:06;20.33;;;14.00;;
14789;SDS011;7486;51.010;10.366;2022-12-07T04:29:33;23.70;;;14.67;;
14789;SDS011;7486;51.010;10.366;2022-12-07T04:32:00;19.67;;;13.07;;
14789;SDS011;7486;51.010;10.366;2022-12-07T04:34:27;20.93;;;14.07;;
14789;SDS011;7486;51.010;10.366;2022-12-07T04:36:53;21.33;;;13.57;;
14789;SDS011;7486;51.010;10.366;2022-12-07T04:39:24;21.33;;;13.63;;
14789;SDS011;7486;51.010;10.366;2022-12-07T04:41:53;19.67;;;13.33;;
14789;SDS011;7486;51.010;10.366;2022-12-07T04:44:23;20.00;;;13.77;;
14789;SDS011;7486;51.010;10.366;2022-12-07T04:46:50;19.77;;;13.70;;
14789;SDS011;7486;51.010;10.366;2022-12-07T04:49:18;20.27;;;14.13;;
14789;SDS011;7486;51.010;10.366;2022-12-07T04:51:45;20.47;;;14.23;;
14789;SDS011;7486;51.010;10.366;2022-12-07T04:54:12;21.10;;;13.70;;
14789;SDS011;7486;51.010;10.366;2022-12-07T04:56:40;22.17;;;14.30;;
14789;SDS011;7486;51.010;10.366;2022-12-07T04:59:07;20.03;;;13.73;;
14789;SDS011;7486;51.010;10.366;2022-12-07T05:01:34;20.17;;;13.93;;
14789;SDS011;7486;51.010;10.366;2022-12-07T05:04:01;23.53;;;14.50;;
14789;SDS011;7486;51.010;10.366;2022-12-07T05:06:28;22.93;;;14.97;;
14789;SDS011;7486;51.010;10.366;2022-12-07T05:08:55;20.40;;;13.50;;
14789;SDS011;7486;51.010;10.366;2022-12-07T05:11:22;22.47;;;14.90;;
14789;SDS011;7486;51.010;10.366;2022-12-07T05:13:49;20.40;;;14.10;;
14789;SDS011;7486;51.010;10.366;2022-12-07T05:16:15;19.20;;;13.77;;
14789;SDS011;7486;51.010;10.366;2022-12-07T05:18:42;16.93;;;12.43;;
14789;SDS011;7486;51.010;10.366;2022-12-07T05:21:09;18.83;;;13.27;;
14789;SDS011;7486;51.010;10.366;2022-12-07T05:23:35;19.23;;;13.07;;
14789;SDS011;7486;51.010;10.366;2022-12-07T05:26:02;18.97;;;12.93;;
14789;SDS011;7486;51.010;10.366;2022-12-07T05:28:29;20.77;;;13.87;;
14789;SDS011;7486;51.010;10.366;2022-12-07T05:30:56;20.23;;;13.07;;
14789;SDS011;7486;51.010;10.366;2022-12-07T05:33:25;19.40;;;13.27;;
14789;SDS011;7486;51.010;10.366;2022-12-07T05:35:52;19.87;;;13.23;;
14789;SDS011;7486;51.010;10.366;2022-12-07T05:38:18;18.87;;;13.03;;
14789;SDS011;7486;51.010;10.366;2022-12-07T05:40:45;18.43;;;12.90;;
14789;SDS011;7486;51.010;10.366;2022-12-07T05:43:12;18.90;;;12.93;;
14789;SDS011;7486;51.010;10.366;2022-12-07T05:45:39;19.00;;;12.87;;
14789;SDS011;7486;51.010;10.366;2022-12-07T05:48:05;19.77;;;12.87;;
14789;SDS011;7486;51.010;10.366;2022-12-07T05:50:32;18.10;;;12.80;;
14789;SDS011;7486;51.010;10.366;2022-12-07T05:52:59;19.47;;;13.20;;
14789;SDS011;7486;51.010;10.366;2022-12-07T05:55:26;18.83;;;12.57;;
14789;SDS011;7486;51.010;10.366;2022-12-07T05:57:53;19.17;;;13.10;;
14789;SDS011;7486;51.010;10.366;2022-12-07T06:00:20;18.27;;;12.80;;
14789;SDS011;7486;51.010;10.366;2022-12-07T06:02:47;20.03;;;13.40;;
14789;SDS011;7486;51.010;10.366;2022-12-07T06:05:14;18.33;;;12.73;;
14789;SDS011;7486;51.010;10.366;2022-12-07T06:07:40;19.37;;;13.33;;
14789;SDS011;7486;51.010;10.366;2022-12-07T06:10:07;19.50;;;12.87;;
14789;SDS011;7486;51.010;10.366;2022-12-07T06:12:34;20.20;;;13.50;;
14789;SDS011;7486;51.010;10.366;2022-12-07T06:15:01;18.83;;;13.17;;
14789;SDS011;7486;51.010;10.366;2022-12-07T06:17:28;18.73;;;13.40;;
14789;SDS011;7486;51.010;10.366;2022-12-07T06:19:54;19.17;;;12.77;;
14789;SDS011;7486;51.010;10.366;2022-12-07T06:22:21;19.00;;;12.50;;
14789;SDS011;7486;51.010;10.366;2022-12-07T06:24:48;19.13;;;12.50;;
14789;SDS011;7486;51.010;10.366;2022-12-07T06:27:14;19.83;;;12.90;;
14789;SDS011;7486;51.010;10.366;2022-12-07T06:29:41;16.37;;;11.23;;
14789;SDS011;7486;51.010;10.366;2022-12-07T06:32:08;17.30;;;11.83;;
14789;SDS011;7486;51.010;10.366;2022-12-07T06:34:34;19.13;;;12.70;;
14789;SDS011;7486;51.010;10.366;2022-12-07T06:37:01;16.30;;;11.33;;
14789;SDS011;7486;51.010;10.366;2022-12-07T06:39:29;18.27;;;12.20;;
14789;SDS011;7486;51.010;10.366;2022-12-07T06:41:56;17.17;;;12.27;;
14789;SDS011;7486;51.010;10.366;2022-12-07T06:44:23;18.30;;;12.97;;
14789;SDS011;7486;51.010;10.366;2022-12-07T06:46:51;16.80;;;12.00;;
14789;SDS011;7486;51.010;10.366;2022-12-07T06:49:32;17.37;;;11.97;;
14789;SDS011;7486;51.010;10.366;2022-12-07T06:51:59;17.93;;;12.07;;
14789;SDS011;7486;51.010;10.366;2022-12-07T06:54:25;17.83;;;11.43;;
14789;SDS011;7486;51.010;10.366;2022-12-07T06:56:52;17.17;;;11.13;;
14789;SDS011;7486;51.010;10.366;2022-12-07T06:59:19;16.47;;;10.83;;
14789;SDS011;7486;51.010;10.366;2022-12-07T07:01:45;16.67;;;10.97;;
14789;SDS011;7486;51.010;10.366;2022-12-07T07:04:12;15.50;;;10.70;;
14789;SDS011;7486;51.010;10.366;2022-12-07T07:06:41;15.90;;;10.60;;
14789;SDS011;7486;51.010;10.366;2022-12-07T07:09:08;14.07;;;10.37;;
14789;SDS011;7486;51.010;10.366;2022-12-07T07:11:35;13.53;;;9.77;;
14789;SDS011;7486;51.010;10.366;2022-12-07T07:14:02;13.67;;;10.10;;
14789;SDS011;7486;51.010;10.366;2022-12-07T07:16:29;14.63;;;9.73;;
14789;SDS011;7486;51.010;10.366;2022-12-07T07:18:56;15.70;;;9.97;;
14789;SDS011;7486;51.010;10.366;2022-12-07T07:21:23;16.10;;;10.10;;
14789;SDS011;7486;51.010;10.366;2022-12-07T07:23:50;14.27;;;10.20;;
14789;SDS011;7486;51.010;10.366;2022-12-07T07:26:17;13.97;;;9.57;;
14789;SDS011;7486;51.010;10.366;2022-12-07T07:28:48;16.13;;;10.10;;
14789;SDS011;7486;51.010;10.366;2022-12-07T07:31:15;15.70;;;10.10;;
14789;SDS011;7486;51.010;10.366;2022-12-07T07:33:44;12.53;;;8.57;;
14789;SDS011;7486;51.010;10.366;2022-12-07T07:36:12;14.67;;;9.60;;
14789;SDS011;7486;51.010;10.366;2022-12-07T07:38:39;13.60;;;9.13;;
14789;SDS011;7486;51.010;10.366;2022-12-07T07:41:06;13.27;;;8.83;;
14789;SDS011;7486;51.010;10.366;2022-12-07T07:43:32;11.77;;;8.80;;
14789;SDS011;7486;51.010;10.366;2022-12-07T07:45:59;14.20;;;9.70;;
14789;SDS011;7486;51.010;10.366;2022-12-07T07:48:26;15.17;;;10.10;;
14789;SDS011;7486;51.010;10.366;2022-12-07T07:50:54;14.90;;;9.37;;
14789;SDS011;7486;51.010;10.366;2022-12-07T07:53:21;14.77;;;9.77;;
14789;SDS011;7486;51.010;10.366;2022-12-07T07:55:56;11.40;;;8.30;;
14789;SDS011;7486;51.010;10.366;2022-12-07T07:58:23;9.93;;;7.77;;
14789;SDS011;7486;51.010;10.366;2022-12-07T08:00:50;10.33;;;7.30;;
14789;SDS011;7486;51.010;10.366;2022-12-07T08:03:18;10.30;;;7.07;;
14789;SDS011;7486;51.010;10.366;2022-12-07T08:05:44;9.37;;;6.70;;
14789;SDS011;7486;51.010;10.366;2022-12-07T08:08:11;10.47;;;6.77;;
14789;SDS011;7486;51.010;10.366;2022-12-07T08:10:40;9.97;;;6.50;;
14789;SDS011;7486;51.010;10.366;2022-12-07T08:13:06;10.83;;;6.80;;
14789;SDS011;7486;51.010;10.366;2022-12-07T08:15:36;9.10;;;7.20;;
14789;SDS011;7486;51.010;10.366;2022-12-07T08:18:03;11.63;;;7.67;;
14789;SDS011;7486;51.010;10.366;2022-12-07T08:20:31;10.57;;;7.33;;
14789;SDS011;7486;51.010;10.366;2022-12-07T08:22:59;15.73;;;8.00;;
14789;SDS011;7486;51.010;10.366;2022-12-07T08:25:26;11.17;;;7.33;;
14789;SDS011;7486;51.010;10.366;2022-12-07T08:27:53;11.63;;;7.57;;
14789;SDS011;7486;51.010;10.366;2022-12-07T08:30:20;13.40;;;8.17;;
14789;SDS011;7486;51.010;10.366;2022-12-07T08:32:48;12.50;;;7.73;;
14789;SDS011;7486;51.010;10.366;2022-12-07T08:35:14;11.20;;;7.80;;
14789;SDS011;7486;51.010;10.366;2022-12-07T08:37:42;11.17;;;7.73;;
14789;SDS011;7486;51.010;10.366;2022-12-07T08:40:10;11.13;;;7.60;;
14789;SDS011;7486;51.010;10.366;2022-12-07T08:42:38;11.10;;;8.00;;
14789;SDS011;7486;51.010;10.366;2022-12-07T08:45:05;9.93;;;7.70;;
14789;SDS011;7486;51.010;10.366;2022-12-07T08:47:34;12.07;;;8.47;;
14789;SDS011;7486;51.010;10.366;2022-12-07T08:50:04;12.07;;;8.90;;
14789;SDS011;7486;51.010;10.366;2022-12-07T08:52:33;11.07;;;7.90;;
14789;SDS011;7486;51.010;10.366;2022-12-07T08:55:02;10.23;;;7.13;;
14789;SDS011;7486;51.010;10.366;2022-12-07T08:57:31;12.40;;;8.07;;
14789;SDS011;7486;51.010;10.366;2022-12-07T09:00:02;11.13;;;7.63;;
14789;SDS011;7486;51.010;10.366;2022-12-07T09:02:30;11.23;;;7.90;;
14789;SDS011;7486;51.010;10.366;2022-12-07T09:04:58;10.77;;;7.50;;
14789;SDS011;7486;51.010;10.366;2022-12-07T09:07:24;10.07;;;7.13;;
14789;SDS011;7486;51.010;10.366;2022-12-07T09:09:52;11.53;;;6.50;;
14789;SDS011;7486;51.010;10.366;2022-12-07T09:12:18;10.07;;;6.80;;
14789;SDS011;7486;51.010;10.366;2022-12-07T09:14:45;10.40;;;6.97;;
14789;SDS011;7486;51.010;10.366;2022-12-07T09:17:12;7.50;;;5.47;;
14789;SDS011;7486;51.010;10.366;2022-12-07T09:19:39;8.93;;;5.57;;
14789;SDS011;7486;51.010;10.366;2022-12-07T09:22:06;8.63;;;5.70;;
14789;SDS011;7486;51.010;10.366;2022-12-07T09:24:36;8.33;;;5.20;;
14789;SDS011;7486;51.010;10.366;2022-12-07T09:27:02;6.87;;;3.97;;
14789;SDS011;7486;51.010;10.366;2022-12-07T09:29:29;6.03;;;4.30;;
14789;SDS011;7486;51.010;10.366;2022-12-07T09:31:56;5.37;;;4.30;;
14789;SDS011;7486;51.010;10.366;2022-12-07T09:34:23;5.70;;;4.10;;
14789;SDS011;7486;51.010;10.366;2022-12-07T09:36:49;4.83;;;3.50;;
14789;SDS011;7486;51.010;10.366;2022-12-07T09:39:16;5.00;;;4.10;;
14789;SDS011;7486;51.010;10.366;2022-12-07T09:41:43;4.97;;;3.70;;
14789;SDS011;7486;51.010;10.366;2022-12-07T09:44:20;7.07;;;3.90;;
14789;SDS011;7486;51.010;10.366;2022-12-07T09:46:50;4.43;;;3.57;;
14789;SDS011;7486;51.010;10.366;2022-12-07T09:49:18;4.97;;;3.77;;
14789;SDS011;7486;51.010;10.366;2022-12-07T09:51:46;6.60;;;3.90;;
14789;SDS011;7486;51.010;10.366;2022-12-07T09:54:14;6.03;;;3.67;;
14789;SDS011;7486;51.010;10.366;2022-12-07T09:56:42;5.53;;;3.60;;
14789;SDS011;7486;51.010;10.366;2022-12-07T09:59:12;4.37;;;3.80;;
14789;SDS011;7486;51.010;10.366;2022-12-07T10:01:43;5.90;;;3.27;;
14789;SDS011;7486;51.010;10.366;2022-12-07T10:04:13;5.43;;;3.27;;
14789;SDS011;7486;51.010;10.366;2022-12-07T10:06:40;4.80;;;3.30;;
14789;SDS011;7486;51.010;10.366;2022-12-07T10:09:12;4.50;;;3.60;;
14789;SDS011;7486;51.010;10.366;2022-12-07T10:14:37;5.60;;;4.33;;
14789;SDS011;7486;51.010;10.366;2022-12-07T10:17:39;5.20;;;4.37;;
14789;SDS011;7486;51.010;10.366;2022-12-07T10:22:53;7.50;;;4.63;;
14789;SDS011;7486;51.010;10.366;2022-12-07T10:25:32;8.77;;;4.03;;
14789;SDS011;7486;51.010;10.366;2022-12-07T10:35:55;7.07;;;3.53;;
14789;SDS011;7486;51.010;10.366;2022-12-07T10:38:22;5.37;;;3.20;;
14789;SDS011;7486;51.010;10.366;2022-12-07T10:41:05;4.57;;;3.00;;
14789;SDS011;7486;51.010;10.366;2022-12-07T10:43:33;5.67;;;3.00;;
14789;SDS011;7486;51.010;10.366;2022-12-07T10:46:07;4.87;;;2.90;;
14789;SDS011;7486;51.010;10.366;2022-12-07T10:49:03;3.53;;;3.07;;
14789;SDS011;7486;51.010;10.366;2022-12-07T10:57:27;4.70;;;3.30;;
14789;SDS011;7486;51.010;10.366;2022-12-07T11:05:45;3.37;;;2.60;;
14789;SDS011;7486;51.010;10.366;2022-12-07T11:11:04;5.13;;;2.70;;
14789;SDS011;7486;51.010;10.366;2022-12-07T11:22:06;4.33;;;2.40;;
14789;SDS011;7486;51.010;10.366;2022-12-07T11:27:25;3.43;;;2.20;;
14789;SDS011;7486;51.010;10.366;2022-12-07T11:29:59;3.93;;;2.40;;
14789;SDS011;7486;51.010;10.366;2022-12-07T11:38:15;4.40;;;2.30;;
14789;SDS011;7486;51.010;10.366;2022-12-07T11:40:48;6.60;;;2.50;;
14789;SDS011;7486;51.010;10.366;2022-12-07T11:43:29;3.37;;;2.20;;
14789;SDS011;7486;51.010;10.366;2022-12-07T11:46:03;3.43;;;1.90;;
14789;SDS011;7486;51.010;10.366;2022-12-07T11:48:48;4.30;;;2.00;;
14789;SDS011;7486;51.010;10.366;2022-12-07T11:51:21;3.87;;;2.10;;
14789;SDS011;7486;51.010;10.366;2022-12-07T11:53:58;2.33;;;1.80;;
14789;SDS011;7486;51.010;10.366;2022-12-07T11:56:38;2.07;;;1.63;;
14789;SDS011;7486;51.010;10.366;2022-12-07T12:01:51;3.17;;;2.00;;
14789;SDS011;7486;51.010;10.366;2022-12-07T12:04:24;2.37;;;1.70;;
14789;SDS011;7486;51.010;10.366;2022-12-07T12:06:56;3.53;;;1.80;;
14789;SDS011;7486;51.010;10.366;2022-12-07T12:09:25;4.03;;;2.20;;
14789;SDS011;7486;51.010;10.366;2022-12-07T12:12:16;1.63;;;1.50;;
14789;SDS011;7486;51.010;10.366;2022-12-07T12:18:53;2.73;;;1.70;;
14789;SDS011;7486;51.010;10.366;2022-12-07T12:21:26;2.70;;;1.70;;
14789;SDS011;7486;51.010;10.366;2022-12-07T12:26:28;4.13;;;2.40;;
14789;SDS011;7486;51.010;10.366;2022-12-07T12:28:59;3.43;;;2.17;;
14789;SDS011;7486;51.010;10.366;2022-12-07T12:31:39;4.20;;;2.37;;
14789;SDS011;7486;51.010;10.366;2022-12-07T12:37:00;3.07;;;1.87;;
14789;SDS011;7486;51.010;10.366;2022-12-07T12:39:27;2.73;;;2.20;;
14789;SDS011;7486;51.010;10.366;2022-12-07T12:41:55;2.17;;;1.73;;
14789;SDS011;7486;51.010;10.366;2022-12-07T12:51:47;3.03;;;2.03;;
14789;SDS011;7486;51.010;10.366;2022-12-07T12:55:42;3.60;;;2.50;;
14789;SDS011;7486;51.010;10.366;2022-12-07T12:57:33;6.00;;;2.30;;
14789;SDS011;7486;51.010;10.366;2022-12-07T13:00:23;4.93;;;1.80;;
14789;SDS011;7486;51.010;10.366;2022-12-07T13:02:53;3.90;;;2.13;;
14789;SDS011;7486;51.010;10.366;2022-12-07T13:05:22;3.80;;;1.60;;
14789;SDS011;7486;51.010;10.366;2022-12-07T13:07:56;2.90;;;1.90;;
14789;SDS011;7486;51.010;10.366;2022-12-07T13:10:50;3.00;;;1.90;;
14789;SDS011;7486;51.010;10.366;2022-12-07T13:18:25;5.57;;;2.40;;
14789;SDS011;7486;51.010;10.366;2022-12-07T13:26:18;2.80;;;1.90;;
14789;SDS011;7486;51.010;10.366;2022-12-07T13:31:56;4.67;;;2.30;;
14789;SDS011;7486;51.010;10.366;2022-12-07T13:34:28;1.97;;;1.80;;
14789;SDS011;7486;51.010;10.366;2022-12-07T13:36:59;3.77;;;1.60;;
14789;SDS011;7486;51.010;10.366;2022-12-07T13:39:28;3.47;;;1.70;;
14789;SDS011;7486;51.010;10.366;2022-12-07T13:41:56;2.87;;;1.67;;
14789;SDS011;7486;51.010;10.366;2022-12-07T13:44:34;3.63;;;1.53;;
14789;SDS011;7486;51.010;10.366;2022-12-07T13:49:54;2.80;;;1.40;;
14789;SDS011;7486;51.010;10.366;2022-12-07T13:52:29;2.37;;;1.87;;
14789;SDS011;7486;51.010;10.366;2022-12-07T13:54:58;2.60;;;1.40;;
14789;SDS011;7486;51.010;10.366;2022-12-07T13:57:29;2.43;;;1.63;;
14789;SDS011;7486;51.010;10.366;2022-12-07T13:59:57;4.00;;;1.63;;
14789;SDS011;7486;51.010;10.366;2022-12-07T14:02:29;2.30;;;1.50;;
14789;SDS011;7486;51.010;10.366;2022-12-07T14:05:14;1.90;;;1.40;;
14789;SDS011;7486;51.010;10.366;2022-12-07T14:07:56;3.63;;;1.73;;
14789;SDS011;7486;51.010;10.366;2022-12-07T14:10:28;3.03;;;1.73;;
14789;SDS011;7486;51.010;10.366;2022-12-07T14:12:56;2.40;;;1.80;;
14789;SDS011;7486;51.010;10.366;2022-12-07T14:15:26;4.80;;;2.30;;
14789;SDS011;7486;51.010;10.366;2022-12-07T14:17:55;5.20;;;2.40;;
14789;SDS011;7486;51.010;10.366;2022-12-07T14:21:01;4.53;;;2.50;;
14789;SDS011;7486;51.010;10.366;2022-12-07T14:23:24;4.30;;;2.27;;
14789;SDS011;7486;51.010;10.366;2022-12-07T14:25:52;3.33;;;2.00;;
14789;SDS011;7486;51.010;10.366;2022-12-07T14:28:26;3.53;;;2.30;;
14789;SDS011;7486;51.010;10.366;2022-12-07T14:30:55;5.43;;;2.40;;
14789;SDS011;7486;51.010;10.366;2022-12-07T14:33:21;4.07;;;2.37;;
14789;SDS011;7486;51.010;10.366;2022-12-07T14:35:50;3.27;;;2.00;;
14789;SDS011;7486;51.010;10.366;2022-12-07T14:38:17;2.97;;;2.00;;
14789;SDS011;7486;51.010;10.366;2022-12-07T14:40:44;3.80;;;2.40;;
14789;SDS011;7486;51.010;10.366;2022-12-07T14:43:11;5.03;;;2.70;;
14789;SDS011;7486;51.010;10.366;2022-12-07T14:45:41;4.33;;;3.00;;
14789;SDS011;7486;51.010;10.366;2022-12-07T14:48:11;4.73;;;2.57;;
14789;SDS011;7486;51.010;10.366;2022-12-07T14:50:59;5.47;;;2.47;;
14789;SDS011;7486;51.010;10.366;2022-12-07T14:53:48;2.67;;;2.10;;
14789;SDS011;7486;51.010;10.366;2022-12-07T14:56:23;5.00;;;2.30;;
14789;SDS011;7486;51.010;10.366;2022-12-07T14:58:52;4.33;;;2.13;;
14789;SDS011;7486;51.010;10.366;2022-12-07T15:01:19;6.57;;;2.10;;
14789;SDS011;7486;51.010;10.366;2022-12-07T15:03:46;4.57;;;2.10;;
14789;SDS011;7486;51.010;10.366;2022-12-07T15:06:13;3.80;;;2.10;;
14789;SDS011;7486;51.010;10.366;2022-12-07T15:08:43;4.77;;;2.53;;
14789;SDS011;7486;51.010;10.366;2022-12-07T15:14:10;5.83;;;2.60;;
14789;SDS011;7486;51.010;10.366;2022-12-07T15:16:38;5.73;;;2.40;;
14789;SDS011;7486;51.010;10.366;2022-12-07T15:19:26;3.87;;;2.37;;
14789;SDS011;7486;51.010;10.366;2022-12-07T15:21:55;5.80;;;2.10;;
14789;SDS011;7486;51.010;10.366;2022-12-07T15:24:23;4.93;;;2.27;;
14789;SDS011;7486;51.010;10.366;2022-12-07T15:26:50;3.90;;;1.90;;
14789;SDS011;7486;51.010;10.366;2022-12-07T15:29:16;4.00;;;1.97;;
14789;SDS011;7486;51.010;10.366;2022-12-07T15:31:49;3.10;;;2.10;;
14789;SDS011;7486;51.010;10.366;2022-12-07T15:34:23;2.70;;;1.93;;
14789;SDS011;7486;51.010;10.366;2022-12-07T15:36:52;2.67;;;1.90;;
14789;SDS011;7486;51.010;10.366;2022-12-07T15:39:18;3.00;;;1.93;;
14789;SDS011;7486;51.010;10.366;2022-12-07T15:41:45;3.40;;;1.90;;
14789;SDS011;7486;51.010;10.366;2022-12-07T15:44:12;3.10;;;2.30;;
14789;SDS011;7486;51.010;10.366;2022-12-07T15:46:40;4.90;;;2.10;;
14789;SDS011;7486;51.010;10.366;2022-12-07T15:49:15;5.00;;;2.77;;
14789;SDS011;7486;51.010;10.366;2022-12-07T15:51:44;4.17;;;2.23;;
14789;SDS011;7486;51.010;10.366;2022-12-07T15:54:16;2.60;;;2.40;;
14789;SDS011;7486;51.010;10.366;2022-12-07T15:56:46;4.00;;;2.40;;
14789;SDS011;7486;51.010;10.366;2022-12-07T15:59:13;3.90;;;3.00;;
14789;SDS011;7486;51.010;10.366;2022-12-07T16:01:39;3.73;;;2.60;;
14789;SDS011;7486;51.010;10.366;2022-12-07T16:04:06;4.13;;;2.63;;
14789;SDS011;7486;51.010;10.366;2022-12-07T16:06:33;3.33;;;2.30;;
14789;SDS011;7486;51.010;10.366;2022-12-07T16:09:01;4.40;;;2.27;;
14789;SDS011;7486;51.010;10.366;2022-12-07T16:11:27;4.17;;;2.50;;
14789;SDS011;7486;51.010;10.366;2022-12-07T16:13:54;5.83;;;2.80;;
14789;SDS011;7486;51.010;10.366;2022-12-07T16:16:21;3.70;;;2.33;;
14789;SDS011;7486;51.010;10.366;2022-12-07T16:18:49;3.33;;;2.50;;
14789;SDS011;7486;51.010;10.366;2022-12-07T16:21:17;4.00;;;2.50;;
14789;SDS011;7486;51.010;10.366;2022-12-07T16:23:50;3.93;;;2.67;;
14789;SDS011;7486;51.010;10.366;2022-12-07T16:26:18;4.30;;;2.13;;
14789;SDS011;7486;51.010;10.366;2022-12-07T16:28:49;4.53;;;2.20;;
14789;SDS011;7486;51.010;10.366;2022-12-07T16:31:20;4.23;;;2.30;;
14789;SDS011;7486;51.010;10.366;2022-12-07T16:33:49;2.80;;;2.50;;
14789;SDS011;7486;51.010;10.366;2022-12-07T16:36:17;4.20;;;2.50;;
14789;SDS011;7486;51.010;10.366;2022-12-07T16:39:04;3.20;;;2.40;;
14789;SDS011;7486;51.010;10.366;2022-12-07T16:41:31;4.43;;;2.60;;
14789;SDS011;7486;51.010;10.366;2022-12-07T16:44:05;3.90;;;2.30;;
14789;SDS011;7486;51.010;10.366;2022-12-07T16:46:34;4.53;;;2.40;;
14789;SDS011;7486;51.010;10.366;2022-12-07T16:49:02;6.70;;;2.63;;
14789;SDS011;7486;51.010;10.366;2022-12-07T16:51:29;5.20;;;2.80;;
14789;SDS011;7486;51.010;10.366;2022-12-07T16:53:56;4.10;;;2.40;;